Time;durP1;ratioP1;P1;durP2;ratioP2;P2;SDS_P1;SDS_P2;PMS_P1;PMS_P2;Temp;Humidity;BMP_temperature;BMP_pressure;BME280_temperature;BME280_humidity;BME280_pressure;Samples;Min_cycle;Max_cycle;Signal;HPM_P1;HPM_P2
2021/12/07 00:00:50;;;;;;;2.73;2.20;;;;;;;5.44;100.00;61380.81;5092579;28;20868;-78
2021/12/07 00:03:19;;;;;;;2.50;1.80;;;;;;;5.38;100.00;61374.41;5092895;28;20477;-78
2021/12/07 00:05:50;;;;;;;3.17;2.10;;;;;;;5.02;100.00;61336.06;5092490;28;20536;-79
2021/12/07 00:08:18;;;;;;;2.77;2.03;;;;;;;4.14;100.00;61245.97;5100774;28;20899;-76
2021/12/07 00:10:50;;;;;;;2.63;1.80;;;;;;;5.19;100.00;61356.16;5094821;28;20495;-77
2021/12/07 00:13:29;;;;;;;4.03;2.23;;;;;;;5.31;100.00;61366.97;5093012;28;20555;-78
2021/12/07 00:15:57;;;;;;;6.60;2.00;;;;;;;5.15;100.00;61352.44;5093983;28;20963;-79
2021/12/07 00:18:25;;;;;;;2.57;2.17;;;;;;;4.49;100.00;61280.16;5092849;28;20442;-77
2021/12/07 00:23:37;;;;;;;3.00;2.30;;;;;;;5.25;100.00;61363.09;5092588;28;20538;-78
2021/12/07 00:26:09;;;;;;;2.57;2.20;;;;;;;5.20;100.00;61354.69;5092519;28;20449;-79
2021/12/07 00:28:39;;;;;;;2.43;2.17;;;;;;;3.97;100.00;61225.34;5092436;28;20499;-77
2021/12/07 00:31:21;;;;;;;3.40;2.53;;;;;;;5.22;100.00;61362.41;5091659;28;20458;-79
2021/12/07 00:33:54;;;;;;;2.80;2.40;;;;;;;5.11;100.00;61350.72;5092793;28;20426;-77
2021/12/07 00:36:25;;;;;;;4.43;2.50;;;;;;;5.31;100.00;61363.91;5092343;28;20810;-78
2021/12/07 00:38:53;;;;;;;2.93;2.10;;;;;;;5.24;100.00;61359.50;5092031;28;20896;-76
2021/12/07 00:41:21;;;;;;;2.73;2.20;;;;;;;5.11;100.00;61350.72;5092135;28;20445;-78
2021/12/07 00:43:51;;;;;;;3.20;2.07;;;;;;;4.59;100.00;61290.28;5091985;28;20507;-79
2021/12/07 00:46:26;;;;;;;2.60;2.10;;;;;;;4.82;100.00;61315.28;5091094;28;20438;-78
2021/12/07 00:48:55;;;;;;;2.67;2.20;;;;;;;3.84;100.00;61216.03;5091995;28;20956;-78
2021/12/07 00:51:29;;;;;;;2.77;1.93;;;;;;;4.95;100.00;61328.63;5091702;28;20992;-76
2021/12/07 00:54:03;;;;;;;2.50;1.93;;;;;;;4.08;100.00;61237.06;5092331;28;20797;-81
2021/12/07 00:56:32;;;;;;;2.13;1.67;;;;;;;4.22;100.00;61256.47;5092284;28;20429;-78
2021/12/07 00:59:04;;;;;;;2.50;1.60;;;;;;;4.85;100.00;61317.97;5091593;28;20430;-77
2021/12/07 01:01:42;;;;;;;1.20;1.10;;;;;;;4.96;100.00;61330.22;5091440;28;20575;-78
2021/12/07 01:04:15;;;;;;;2.13;1.60;;;;;;;4.83;100.00;61315.84;5092087;28;20481;-77
2021/12/07 01:07:01;;;;;;;1.80;1.50;;;;;;;4.18;100.00;61247.72;5091748;28;20481;-78
2021/12/07 01:09:41;;;;;;;1.43;1.30;;;;;;;5.00;100.00;61333.94;5091740;28;20450;-77
2021/12/07 01:26:27;;;;;;;2.13;1.57;;;;;;;4.85;100.00;61323.53;5091532;28;20436;-79
2021/12/07 01:28:55;;;;;;;1.47;1.20;;;;;;;3.85;100.00;61212.06;5091253;28;20452;-78
2021/12/07 01:31:33;;;;;;;1.50;0.97;;;;;;;4.90;100.00;61323.28;5091602;28;20450;-77
2021/12/07 01:34:18;;;;;;;1.93;1.73;;;;;;;4.01;100.00;61229.06;5091794;28;20440;-77
2021/12/07 01:37:05;;;;;;;3.30;1.37;;;;;;;4.47;100.00;61277.50;5093096;28;20441;-77
2021/12/07 01:40:04;;;;;;;1.53;1.27;;;;;;;5.08;100.00;61345.50;5091212;28;20446;-78
2021/12/07 01:49:45;;;;;;;1.50;1.07;;;;;;;5.22;100.00;61359.34;5054763;28;20527;-78
2021/12/07 01:51:14;;;;;;;1.60;1.10;;;;;;;3.88;100.00;61215.78;5091509;28;20463;-78
2021/12/07 02:02:01;;;;;;;2.70;1.57;;;;;;;4.94;100.00;61325.56;5091216;28;20432;-77
2021/12/07 02:04:27;;;;;;;2.83;1.40;;;;;;;4.47;100.00;61274.97;5093835;28;20452;-77
2021/12/07 02:07:00;;;;;;;1.70;1.43;;;;;;;4.59;100.00;61295.31;5094791;28;20465;-78
2021/12/07 02:09:29;;;;;;;1.73;1.43;;;;;;;3.96;100.00;61226.81;5095166;28;20528;-76
2021/12/07 02:12:04;;;;;;;1.97;1.30;;;;;;;5.25;100.00;61360.03;5093722;28;20559;-77
2021/12/07 02:14:32;;;;;;;2.17;1.13;;;;;;;3.91;100.00;61224.00;5095414;28;20801;-77
2021/12/07 02:17:02;;;;;;;2.03;1.33;;;;;;;4.06;100.00;61234.94;5094039;28;20438;-79
2021/12/07 02:19:30;;;;;;;0.80;0.80;;;;;;;3.47;100.00;61177.22;5102971;28;20935;-76
2021/12/07 02:22:05;;;;;;;1.63;0.93;;;;;;;4.79;100.00;61316.63;5095985;28;20459;-77
2021/12/07 02:24:35;;;;;;;1.13;0.97;;;;;;;4.04;100.00;61237.84;5095449;28;20480;-77
2021/12/07 02:27:08;;;;;;;2.80;0.70;;;;;;;4.46;100.00;61276.97;5094995;28;21055;-77
2021/12/07 02:29:36;;;;;;;1.07;0.97;;;;;;;4.59;100.00;61292.81;5095027;28;20437;-76
2021/12/07 02:32:05;;;;;;;2.53;0.77;;;;;;;3.16;100.00;61139.75;5094277;28;20510;-77
2021/12/07 02:34:35;;;;;;;0.70;0.60;;;;;;;4.53;100.00;61281.38;5094405;28;20449;-78
2021/12/07 02:37:06;;;;;;;0.70;0.70;;;;;;;4.41;100.00;61271.13;5094363;28;20441;-80
2021/12/07 02:42:21;;;;;;;0.87;0.80;;;;;;;3.45;100.00;61167.53;5094385;28;20437;-77
2021/12/07 02:44:52;;;;;;;2.93;0.90;;;;;;;4.44;100.00;61279.88;5094196;28;20442;-76
2021/12/07 02:50:11;;;;;;;0.87;0.87;;;;;;;3.88;100.00;61215.78;5093979;28;20588;-76
2021/12/07 02:52:57;;;;;;;1.73;0.73;;;;;;;4.21;100.00;61250.88;5094868;28;20588;-77
2021/12/07 02:55:26;;;;;;;1.77;0.63;;;;;;;4.34;100.00;61266.72;5094184;28;20521;-77
2021/12/07 02:57:54;;;;;;;0.73;0.70;;;;;;;4.11;100.00;61245.28;5094332;28;20480;-78
2021/12/07 03:00:26;;;;;;;1.50;0.70;;;;;;;3.58;100.00;61188.91;5094789;28;20429;-77
2021/12/07 03:02:59;;;;;;;2.30;0.87;;;;;;;4.11;100.00;61244.75;5093947;28;20901;-77
2021/12/07 03:05:41;;;;;;;0.60;0.60;;;;;;;4.28;100.00;61260.88;5092643;28;20544;-81
2021/12/07 03:27:37;;;;;;;2.37;0.80;;;;;;;3.94;100.00;61222.16;5093258;28;20979;-77
2021/12/07 03:30:06;;;;;;;0.60;0.50;;;;;;;3.45;100.00;61175.06;5092707;28;20474;-77
2021/12/07 03:32:36;;;;;;;0.73;0.50;;;;;;;3.98;100.00;61226.44;5092216;28;20442;-78
2021/12/07 03:35:03;;;;;;;1.23;0.80;;;;;;;2.53;100.00;61072.81;5093469;27;20450;-78
2021/12/07 03:37:30;;;;;;;0.83;0.50;;;;;;;3.75;100.00;61204.47;5093249;28;20442;-76
2021/12/07 03:40:00;;;;;;;0.90;0.80;;;;;;;3.74;100.00;61195.84;5093672;28;20450;-78
2021/12/07 03:42:31;;;;;;;0.60;0.50;;;;;;;3.70;100.00;61196.63;5093254;28;20437;-78
2021/12/07 03:45:00;;;;;;;0.80;0.60;;;;;;;1.98;100.00;61011.88;5094119;28;20448;-77
2021/12/07 03:47:30;;;;;;;0.57;0.57;;;;;;;3.57;100.00;61187.31;5093373;28;20524;-78
2021/12/07 03:49:58;;;;;;;0.70;0.60;;;;;;;3.58;100.00;61183.88;5092890;28;20544;-79
2021/12/07 03:52:27;;;;;;;1.27;0.70;;;;;;;3.64;100.00;61189.72;5093008;28;20437;-78
2021/12/07 03:54:55;;;;;;;1.70;0.80;;;;;;;3.61;100.00;61196.59;5093252;28;20448;-77
2021/12/07 03:57:28;;;;;;;2.60;1.57;;;;;;;3.47;100.00;61172.16;5093571;28;20453;-78
2021/12/07 03:59:55;;;;;;;1.33;0.80;;;;;;;3.55;100.00;61182.66;5093046;28;20522;-78
2021/12/07 04:02:24;;;;;;;0.80;0.80;;;;;;;3.57;100.00;61185.31;5093278;28;21032;-78
2021/12/07 04:04:58;;;;;;;1.17;0.90;;;;;;;3.30;100.00;61154.09;5092663;28;20547;-78
2021/12/07 04:07:27;;;;;;;1.00;0.90;;;;;;;3.68;100.00;61199.56;5093103;28;20437;-78
2021/12/07 04:09:54;;;;;;;1.17;1.00;;;;;;;3.13;100.00;61136.03;5091329;28;20448;-77
2021/12/07 04:12:21;;;;;;;2.90;1.13;;;;;;;2.74;100.00;61097.09;5092717;28;20577;-78
2021/12/07 04:15:09;;;;;;;3.67;1.43;;;;;;;3.48;100.00;61177.75;5091173;28;20448;-77
2021/12/07 04:17:38;;;;;;;1.20;1.10;;;;;;;3.41;100.00;61165.78;5092779;28;20968;-78
2021/12/07 04:20:13;;;;;;;1.67;1.30;;;;;;;3.42;100.00;61166.88;5094446;28;20466;-77
2021/12/07 04:22:43;;;;;;;2.93;1.50;;;;;;;3.29;100.00;61153.03;5094440;27;20441;-78
2021/12/07 04:25:14;;;;;;;1.20;1.07;;;;;;;2.10;100.00;61027.66;5092814;28;20544;-77
2021/12/07 04:27:44;;;;;;;1.93;1.23;;;;;;;3.13;100.00;61138.53;5091437;28;20446;-77
2021/12/07 04:30:30;;;;;;;2.30;0.90;;;;;;;3.23;100.00;61152.22;5098015;28;20465;-74
2021/12/07 04:33:00;;;;;;;1.37;1.00;;;;;;;3.22;100.00;61145.59;5096325;28;20430;-77
2021/12/07 04:38:12;;;;;;;2.33;1.10;;;;;;;1.95;100.00;61013.72;5092063;28;20974;-77
2021/12/07 04:40:39;;;;;;;3.23;1.30;;;;;;;3.19;100.00;61142.41;5092152;28;20477;-78
2021/12/07 04:43:10;;;;;;;1.93;1.30;;;;;;;1.74;100.00;60989.44;5092152;27;20496;-77
2021/12/07 04:45:53;;;;;;;1.60;1.40;;;;;;;3.18;100.00;61141.34;5092492;28;20430;-77
2021/12/07 04:59:40;;;;;;;1.40;1.30;;;;;;;2.92;100.00;61114.22;5092072;28;20584;-79
2021/12/07 05:02:24;;;;;;;1.47;1.37;;;;;;;1.98;100.00;61014.91;5091851;28;20450;-78
2021/12/07 05:04:58;;;;;;;1.90;1.50;;;;;;;2.94;100.00;61118.34;5091532;28;20477;-80
2021/12/07 05:07:32;;;;;;;6.20;1.90;;;;;;;2.83;100.00;61109.16;5093759;28;20453;-77
2021/12/07 05:13:26;;;;;;;2.13;1.40;;;;;;;2.61;100.00;61083.28;5091720;28;20867;-77
2021/12/07 05:16:09;;;;;;;2.77;1.27;;;;;;;2.27;100.00;61050.75;5094290;28;20437;-77
2021/12/07 05:23:52;;;;;;;2.00;1.27;;;;;;;2.63;100.00;61083.44;5094431;28;20520;-77
2021/12/07 05:24:50;;;;;;;1.67;1.57;;;;;;;1.42;100.00;60955.50;5094354;28;21087;-75
2021/12/07 05:38:35;;;;;;;2.27;1.73;;;;;;;2.03;100.00;61025.25;5096435;28;20479;-79
2021/12/07 05:41:10;;;;;;;1.40;1.30;;;;;;;1.99;100.00;61021.00;5099152;28;20445;-79
2021/12/07 05:43:41;;;;;;;2.43;1.43;;;;;;;1.94;100.00;61015.69;5100141;28;20473;-75
2021/12/07 05:46:08;;;;;;;3.53;1.80;;;;;;;1.86;100.00;61002.19;5098020;28;20437;-77
2021/12/07 05:48:39;;;;;;;3.23;1.90;;;;;;;1.80;100.00;61000.31;5098193;28;20464;-77
2021/12/07 05:51:07;;;;;;;2.87;1.77;;;;;;;1.96;100.00;61017.81;5097296;28;20437;-78
2021/12/07 05:53:37;;;;;;;2.33;1.83;;;;;;;1.84;100.00;61005.09;5098362;28;20556;-75
2021/12/07 05:56:06;;;;;;;2.97;1.97;;;;;;;1.89;100.00;61007.88;5098018;28;20453;-80
2021/12/07 05:58:38;;;;;;;3.40;1.87;;;;;;;1.79;100.00;60997.28;5098815;28;20434;-79
2021/12/07 06:01:06;;;;;;;4.87;2.27;;;;;;;1.02;100.00;60915.56;5099058;28;20446;-77
2021/12/07 06:03:39;;;;;;;7.47;3.63;;;;;;;1.87;100.00;61005.75;5098193;27;20649;-76
2021/12/07 06:06:08;;;;;;;2.90;2.20;;;;;;;0.63;100.00;60877.78;5098136;28;20882;-77
2021/12/07 06:08:41;;;;;;;3.27;2.00;;;;;;;1.90;100.00;61010.91;5097921;28;20488;-77
2021/12/07 06:11:15;;;;;;;4.90;1.93;;;;;;;1.88;100.00;61004.31;5098286;28;20510;-77
2021/12/07 06:13:45;;;;;;;2.47;1.90;;;;;;;1.18;100.00;60930.56;5097654;28;20552;-77
2021/12/07 06:18:57;;;;;;;3.97;2.60;;;;;;;0.46;100.00;60859.75;5096822;28;20434;-76
2021/12/07 06:21:34;;;;;;;4.87;2.10;;;;;;;1.83;100.00;60999.00;5098443;28;20438;-77
2021/12/07 06:24:06;;;;;;;3.60;1.60;;;;;;;1.74;100.00;60994.47;5097716;28;20651;-78
2021/12/07 06:26:35;;;;;;;5.23;1.90;;;;;;;1.67;100.00;60984.53;5096173;28;20434;-76
2021/12/07 06:29:06;;;;;;;3.10;1.80;;;;;;;1.68;100.00;60986.13;5096637;28;20477;-76
2021/12/07 06:31:35;;;;;;;3.47;1.97;;;;;;;0.33;100.00;60843.47;5096308;28;20458;-78
2021/12/07 06:34:04;;;;;;;2.93;2.00;;;;;;;0.52;100.00;60866.13;5096228;28;20480;-78
2021/12/07 06:36:35;;;;;;;6.13;2.50;;;;;;;1.40;100.00;60958.38;5097283;28;20466;-78
2021/12/07 06:39:05;;;;;;;3.13;2.30;;;;;;;1.59;100.00;60974.06;5097023;28;20440;-77
2021/12/07 06:41:38;;;;;;;3.00;2.30;;;;;;;1.61;100.00;60978.16;5103734;28;20422;-76
2021/12/07 06:44:06;;;;;;;3.43;2.60;;;;;;;1.71;100.00;60991.28;5096963;28;20481;-77
2021/12/07 06:46:35;;;;;;;3.30;2.03;;;;;;;1.49;100.00;60965.44;5096851;28;20491;-77
2021/12/07 06:49:06;;;;;;;7.87;2.30;;;;;;;1.56;100.00;60973.38;5096706;28;20503;-78
2021/12/07 06:51:40;;;;;;;5.13;3.10;;;;;;;1.55;100.00;60974.31;5095510;28;20449;-77
2021/12/07 06:54:11;;;;;;;6.57;2.67;;;;;;;-0.20;100.00;60790.34;5096806;28;20455;-77
2021/12/07 06:56:39;;;;;;;3.93;2.10;;;;;;;-0.12;100.00;60795.81;5095305;28;20451;-77
2021/12/07 06:59:13;;;;;;;2.60;1.90;;;;;;;1.28;100.00;60945.66;5097064;28;20434;-76
2021/12/07 07:04:25;;;;;;;2.43;2.00;;;;;;;-0.27;100.00;60779.91;5096988;28;21042;-77
2021/12/07 07:06:59;;;;;;;2.77;2.20;;;;;;;0.40;100.00;60858.41;5095592;28;20450;-78
2021/12/07 07:09:28;;;;;;;7.20;2.20;;;;;;;0.23;100.00;60835.38;5096331;28;20654;-76
2021/12/07 07:11:57;;;;;;;3.57;2.17;;;;;;;1.32;100.00;60947.38;5095719;28;20446;-77
2021/12/07 07:14:24;;;;;;;2.37;1.50;;;;;;;0.15;100.00;60821.34;5095921;28;20445;-75
2021/12/07 07:16:51;;;;;;;3.57;2.17;;;;;;;0.23;100.00;60835.38;5095773;28;20514;-79
2021/12/07 07:19:19;;;;;;;4.93;2.60;;;;;;;-0.04;100.00;60801.78;5095132;28;20438;-76
2021/12/07 07:21:46;;;;;;;2.93;2.00;;;;;;;0.82;100.00;60892.91;5094830;28;20438;-76
2021/12/07 07:27:00;;;;;;;7.60;2.50;;;;;;;1.29;100.00;60944.22;5094596;27;20852;-77
2021/12/07 07:29:28;;;;;;;2.80;1.90;;;;;;;1.23;100.00;60937.84;5094319;28;20453;-75
2021/12/07 07:31:56;;;;;;;2.90;2.23;;;;;;;1.18;100.00;60935.03;5093336;28;20457;-76
2021/12/07 07:34:27;;;;;;;5.90;2.70;;;;;;;1.15;100.00;60931.88;5093401;28;20445;-77
2021/12/07 07:36:54;;;;;;;6.43;3.10;;;;;;;1.00;100.00;60913.44;5093966;28;20495;-75
2021/12/07 07:39:27;;;;;;;5.43;3.40;;;;;;;1.17;100.00;60931.47;5092837;28;20566;-76
2021/12/07 07:41:56;;;;;;;3.43;2.33;;;;;;;1.08;100.00;60929.44;5093685;28;20893;-76
2021/12/07 07:44:23;;;;;;;4.17;2.30;;;;;;;0.37;100.00;60849.69;5093558;28;20525;-77
2021/12/07 07:46:51;;;;;;;5.67;3.27;;;;;;;0.27;100.00;60839.63;5092758;28;20440;-77
2021/12/07 07:49:20;;;;;;;5.23;2.87;;;;;;;0.54;100.00;60873.25;5093120;28;20454;-77
2021/12/07 07:51:49;;;;;;;3.50;2.50;;;;;;;-0.21;100.00;60783.75;5092730;28;20430;-77
2021/12/07 07:54:16;;;;;;;3.80;2.37;;;;;;;-0.47;100.00;60761.22;5092976;28;20967;-78
2021/12/07 07:56:57;;;;;;;4.97;2.50;;;;;;;1.15;100.00;60926.84;5092923;28;20442;-78
2021/12/07 07:59:25;;;;;;;4.43;2.33;;;;;;;1.14;100.00;60930.81;5093503;28;20446;-75
2021/12/07 08:01:56;;;;;;;2.33;2.10;;;;;;;0.88;100.00;60903.22;5092579;28;20438;-78
2021/12/07 08:04:23;;;;;;;2.87;2.17;;;;;;;-0.19;100.00;60785.88;5092865;28;20477;-79
2021/12/07 08:06:53;;;;;;;5.97;2.93;;;;;;;1.20;100.00;60934.66;5092409;28;20508;-75
2021/12/07 08:09:21;;;;;;;4.27;3.00;;;;;;;0.99;100.00;60910.41;5091511;28;20442;-76
2021/12/07 08:11:50;;;;;;;5.57;3.53;;;;;;;0.98;100.00;60911.31;5093776;27;20518;-75
2021/12/07 08:14:19;;;;;;;4.23;2.80;;;;;;;1.18;100.00;60930.03;5092203;28;20812;-76
2021/12/07 08:16:48;;;;;;;3.53;2.27;;;;;;;1.13;100.00;60924.72;5092212;28;20438;-76
2021/12/07 08:19:21;;;;;;;3.60;2.50;;;;;;;0.17;100.00;60829.03;5092158;28;20971;-76
2021/12/07 08:21:49;;;;;;;5.13;2.63;;;;;;;1.10;100.00;60924.59;5092438;28;20441;-79
2021/12/07 08:24:24;;;;;;;5.07;2.70;;;;;;;0.65;100.00;60879.91;5092357;28;20858;-76
2021/12/07 08:26:54;;;;;;;5.10;3.30;;;;;;;1.18;100.00;60930.03;5093043;28;20429;-76
2021/12/07 08:29:22;;;;;;;6.83;3.30;;;;;;;1.23;100.00;60937.84;5091315;28;20429;-76
2021/12/07 08:32:14;;;;;;;3.93;3.03;;;;;;;1.28;100.00;60945.66;5091412;28;20469;-78
2021/12/07 08:34:41;;;;;;;8.23;3.37;;;;;;;0.96;100.00;60906.69;5092109;28;20979;-76
2021/12/07 08:37:09;;;;;;;4.80;3.03;;;;;;;1.23;100.00;60935.34;5092321;28;21134;-77
2021/12/07 08:39:45;;;;;;;3.60;2.63;;;;;;;1.09;100.00;60921.00;5092203;28;20468;-77
2021/12/07 08:42:21;;;;;;;4.97;3.27;;;;;;;-0.19;100.00;60785.88;5091956;28;20888;-77
2021/12/07 08:44:50;;;;;;;4.77;3.50;;;;;;;0.93;100.00;60903.53;5092108;28;20530;-78
2021/12/07 08:47:17;;;;;;;7.10;4.10;;;;;;;0.84;100.00;60900.06;5091921;28;20507;-78
2021/12/07 08:49:44;;;;;;;5.70;4.23;;;;;;;1.28;100.00;60940.63;5092561;28;20491;-75
2021/12/07 08:52:13;;;;;;;8.83;4.83;;;;;;;0.77;100.00;60882.59;5096988;28;20566;-79
2021/12/07 09:00:09;;;;;;;4.23;3.37;;;;;;;1.26;100.00;60938.50;5091891;28;20429;-77
2021/12/07 09:02:36;;;;;;;4.23;3.10;;;;;;;0.66;100.00;60875.97;5090560;28;20477;-76
2021/12/07 09:05:05;;;;;;;4.57;2.97;;;;;;;1.28;100.00;60940.63;5090143;28;20876;-78
2021/12/07 09:07:34;;;;;;;4.10;2.47;;;;;;;0.92;100.00;60897.44;5091764;28;20433;-76
2021/12/07 09:10:01;;;;;;;4.70;3.07;;;;;;;1.26;100.00;60938.50;5091781;28;20461;-76
2021/12/07 09:12:34;;;;;;;4.73;3.40;;;;;;;1.19;100.00;60931.63;5091083;28;20478;-77
2021/12/07 09:15:02;;;;;;;4.77;2.90;;;;;;;0.73;100.00;60882.84;5091243;28;20804;-77
2021/12/07 09:17:33;;;;;;;4.00;2.90;;;;;;;0.70;100.00;60885.22;5091478;28;20430;-80
2021/12/07 09:20:02;;;;;;;5.40;3.47;;;;;;;1.31;100.00;60948.84;5091607;28;20589;-76
2021/12/07 09:22:32;;;;;;;5.90;3.50;;;;;;;1.32;100.00;60942.38;5091241;28;20482;-77
2021/12/07 09:25:01;;;;;;;4.43;3.20;;;;;;;0.83;100.00;60893.44;5091164;28;20986;-79
2021/12/07 09:27:31;;;;;;;4.13;2.60;;;;;;;1.25;100.00;60942.47;5091567;27;20446;-75
2021/12/07 09:29:59;;;;;;;4.33;3.10;;;;;;;-0.42;100.00;60766.53;5091610;28;20456;-78
2021/12/07 09:32:29;;;;;;;5.93;3.60;;;;;;;0.95;100.00;60908.16;5091372;28;20434;-78
2021/12/07 09:34:58;;;;;;;4.23;2.87;;;;;;;1.23;100.00;60935.34;5091696;28;20446;-77
2021/12/07 09:37:26;;;;;;;5.77;3.77;;;;;;;1.44;100.00;60957.59;5091222;28;20442;-76
2021/12/07 09:39:54;;;;;;;5.43;3.57;;;;;;;1.32;100.00;60944.88;5091207;28;20434;-78
2021/12/07 09:42:40;;;;;;;5.83;3.40;;;;;;;1.11;100.00;60925.13;5091163;28;20441;-77
2021/12/07 09:45:09;;;;;;;6.13;2.83;;;;;;;1.41;100.00;60959.47;5088973;28;20480;-76
2021/12/07 09:47:39;;;;;;;5.20;3.50;;;;;;;1.00;100.00;60919.00;5091474;28;20495;-76
2021/12/07 09:50:13;;;;;;;5.00;3.37;;;;;;;1.49;100.00;60967.94;5091065;28;20434;-77
2021/12/07 09:52:40;;;;;;;3.87;2.90;;;;;;;1.39;100.00;60952.31;5091114;28;20453;-78
2021/12/07 09:55:09;;;;;;;5.30;2.50;;;;;;;1.24;100.00;60936.38;5090778;28;20449;-75
2021/12/07 09:57:38;;;;;;;3.83;2.60;;;;;;;1.35;100.00;60953.09;5091048;28;20453;-75
2021/12/07 10:00:22;;;;;;;4.17;2.90;;;;;;;1.38;100.00;60951.25;5091226;28;20449;-80
2021/12/07 10:02:51;;;;;;;3.73;2.70;;;;;;;1.44;100.00;60960.66;5091231;28;20437;-76
2021/12/07 10:05:19;;;;;;;8.97;2.93;;;;;;;1.56;100.00;60972.84;5090647;28;20531;-76
2021/12/07 10:07:47;;;;;;;6.00;2.70;;;;;;;1.56;100.00;60975.38;5090631;28;20429;-78
2021/12/07 10:10:22;;;;;;;6.20;3.00;;;;;;;1.51;100.00;60965.03;5090814;28;20434;-75
2021/12/07 10:12:53;;;;;;;3.23;2.30;;;;;;;1.24;100.00;60936.38;5090814;28;20468;-78
2021/12/07 10:15:25;;;;;;;7.17;3.27;;;;;;;0.31;100.00;60838.31;5090586;28;20955;-77
2021/12/07 10:18:04;;;;;;;4.37;2.80;;;;;;;1.55;100.00;60969.28;5090681;28;20437;-78
2021/12/07 10:20:40;;;;;;;4.97;3.57;;;;;;;0.41;100.00;60854.47;5090564;28;20441;-76
2021/12/07 10:23:26;;;;;;;4.33;2.90;;;;;;;1.55;100.00;60969.28;5089570;28;20452;-77
2021/12/07 10:25:57;;;;;;;6.33;3.43;;;;;;;1.47;100.00;60958.81;5094352;28;20481;-77
2021/12/07 10:28:28;;;;;;;6.70;3.53;;;;;;;0.66;100.00;60875.97;5094103;28;20960;-78
2021/12/07 10:31:03;;;;;;;4.47;2.97;;;;;;;0.42;100.00;60855.00;5094578;28;20465;-78
2021/12/07 10:33:33;;;;;;;5.40;3.33;;;;;;;0.38;100.00;60851.28;5094590;28;20448;-78
2021/12/07 10:36:11;;;;;;;8.27;3.33;;;;;;;1.69;100.00;60979.13;5094632;28;20492;-77
2021/12/07 10:38:43;;;;;;;4.77;3.23;;;;;;;1.78;100.00;60996.19;5094622;28;20433;-76
2021/12/07 10:41:21;;;;;;;5.83;3.63;;;;;;;1.73;100.00;60987.84;5094584;28;20512;-77
2021/12/07 10:44:02;;;;;;;6.07;3.83;;;;;;;1.90;100.00;61008.94;5094459;28;20441;-77
2021/12/07 10:47:03;;;;;;;4.07;2.87;;;;;;;1.84;100.00;61005.09;5093970;28;20712;-76
2021/12/07 10:49:41;;;;;;;5.70;2.97;;;;;;;1.78;100.00;60996.19;5093321;28;20449;-77
2021/12/07 10:52:33;;;;;;;4.53;2.90;;;;;;;1.64;100.00;60983.84;5093860;28;20492;-79
2021/12/07 10:58:02;;;;;;;3.60;2.60;;;;;;;1.03;100.00;60914.13;5094016;28;20939;-75
2021/12/07 11:00:34;;;;;;;5.17;3.37;;;;;;;0.40;100.00;60848.41;5094122;28;20837;-76
2021/12/07 11:03:04;;;;;;;4.03;2.97;;;;;;;1.52;100.00;60971.66;5093933;28;20828;-78
2021/12/07 11:05:37;;;;;;;6.63;3.47;;;;;;;1.45;100.00;60964.22;5096631;28;20531;-77
2021/12/07 11:08:08;;;;;;;4.33;2.90;;;;;;;1.41;100.00;60956.94;5094294;28;20799;-76
2021/12/07 11:10:43;;;;;;;4.10;3.13;;;;;;;0.41;100.00;60846.94;5094491;28;20450;-76
2021/12/07 11:13:24;;;;;;;7.10;3.43;;;;;;;1.65;100.00;60979.91;5093503;28;20472;-75
2021/12/07 11:15:55;;;;;;;3.87;3.00;;;;;;;1.66;100.00;60980.97;5092370;28;20437;-77
2021/12/07 11:18:26;;;;;;;4.83;3.60;;;;;;;0.36;100.00;60854.19;5093783;28;20598;-78
2021/12/07 11:21:05;;;;;;;5.30;3.27;;;;;;;1.82;100.00;61000.44;5094068;28;20429;-77
2021/12/07 11:23:38;;;;;;;5.80;3.40;;;;;;;1.78;100.00;60998.72;5093437;27;20449;-75
2021/12/07 11:31:40;;;;;;;6.30;3.83;;;;;;;0.00;100.00;60806.00;5094396;28;20440;-77
2021/12/07 11:34:11;;;;;;;6.07;4.07;;;;;;;1.76;100.00;60991.56;5094863;28;20461;-75
2021/12/07 11:36:44;;;;;;;4.50;3.00;;;;;;;1.66;100.00;60983.47;5093160;28;20453;-77
2021/12/07 11:39:25;;;;;;;3.20;2.80;;;;;;;1.75;100.00;60990.53;5093395;28;20952;-76
2021/12/07 11:41:57;;;;;;;5.10;2.97;;;;;;;1.24;100.00;60938.91;5093878;28;20437;-78
2021/12/07 11:44:25;;;;;;;5.33;3.23;;;;;;;1.73;100.00;60988.41;5093441;28;20521;-78
2021/12/07 11:47:03;;;;;;;5.30;2.90;;;;;;;1.73;100.00;60987.84;5093049;28;20473;-79
2021/12/07 11:49:37;;;;;;;5.20;3.20;;;;;;;1.68;100.00;60985.59;5093155;28;20437;-79
2021/12/07 11:52:09;;;;;;;5.77;3.57;;;;;;;1.76;100.00;60994.06;5092507;28;20445;-78
2021/12/07 11:54:43;;;;;;;6.63;4.20;;;;;;;1.65;100.00;60979.91;5093129;28;20447;-78
2021/12/07 11:57:13;;;;;;;4.03;2.43;;;;;;;1.59;100.00;60976.03;5092567;28;20445;-79
2021/12/07 11:59:43;;;;;;;6.40;3.60;;;;;;;1.52;100.00;60966.63;5092956;28;20441;-76
2021/12/07 12:02:12;;;;;;;4.07;3.03;;;;;;;0.38;100.00;60846.28;5092678;28;20434;-77
2021/12/07 12:04:42;;;;;;;7.33;3.80;;;;;;;1.13;100.00;60927.75;5092643;28;20430;-79
2021/12/07 12:07:12;;;;;;;3.57;2.90;;;;;;;1.36;100.00;60951.63;5092655;28;20580;-78
2021/12/07 12:09:47;;;;;;;4.30;3.00;;;;;;;1.37;100.00;60950.19;5092749;28;20939;-78
2021/12/07 12:12:20;;;;;;;5.33;3.10;;;;;;;1.39;100.00;60955.34;5092030;28;20457;-77
2021/12/07 12:15:04;;;;;;;5.27;3.70;;;;;;;1.30;100.00;60943.28;5092626;28;20480;-76
2021/12/07 12:17:42;;;;;;;4.33;3.57;;;;;;;-0.34;100.00;60770.00;5092893;28;20465;-77
2021/12/07 12:20:24;;;;;;;4.00;3.30;;;;;;;1.25;100.00;60937.97;5092774;27;20458;-79
2021/12/07 12:22:59;;;;;;;6.87;3.97;;;;;;;1.50;100.00;60963.97;5092333;28;20437;-77
2021/12/07 12:28:11;;;;;;;6.63;3.23;;;;;;;1.38;100.00;60951.25;5090932;28;20796;-77
2021/12/07 12:30:42;;;;;;;7.53;3.53;;;;;;;1.40;100.00;60953.91;5095429;28;20847;-76
2021/12/07 12:33:14;;;;;;;5.53;3.63;;;;;;;1.44;100.00;60957.59;5092536;28;20518;-77
2021/12/07 12:35:51;;;;;;;5.87;3.73;;;;;;;0.76;100.00;60894.06;5092492;28;20507;-77
2021/12/07 12:38:23;;;;;;;5.03;3.67;;;;;;;1.37;100.00;60950.19;5092161;28;20974;-76
2021/12/07 12:40:57;;;;;;;5.63;3.40;;;;;;;-0.13;100.00;60797.25;5091892;28;20976;-76
2021/12/07 12:43:40;;;;;;;4.43;3.43;;;;;;;0.99;100.00;60910.41;5092065;28;20935;-76
2021/12/07 12:46:08;;;;;;;11.13;3.33;;;;;;;1.33;100.00;60948.97;5092081;28;20489;-75
2021/12/07 12:48:36;;;;;;;4.30;3.10;;;;;;;1.25;100.00;60937.47;5091100;28;20960;-76
2021/12/07 12:51:04;;;;;;;5.50;3.50;;;;;;;0.64;100.00;60873.84;5091859;28;20430;-78
2021/12/07 12:53:36;;;;;;;5.17;3.63;;;;;;;0.89;100.00;60894.28;5090637;28;20453;-76
2021/12/07 12:56:05;;;;;;;6.70;3.70;;;;;;;0.60;100.00;60879.09;5090746;28;20437;-78
2021/12/07 12:58:42;;;;;;;6.60;4.40;;;;;;;1.25;100.00;60932.44;5091704;28;20499;-78
2021/12/07 13:01:18;;;;;;;5.73;4.43;;;;;;;1.33;100.00;60948.47;5091460;28;20997;-77
2021/12/07 13:03:50;;;;;;;4.60;3.50;;;;;;;1.23;100.00;60935.34;5091061;28;20441;-77
2021/12/07 13:06:22;;;;;;;6.07;3.63;;;;;;;1.26;100.00;60941.03;5091560;28;20517;-78
2021/12/07 13:09:00;;;;;;;5.80;3.93;;;;;;;1.34;100.00;60954.53;5091765;28;20507;-81
2021/12/07 13:11:36;;;;;;;5.03;3.63;;;;;;;1.23;100.00;60935.84;5091592;28;20532;-75
2021/12/07 13:14:05;;;;;;;7.83;2.80;;;;;;;0.95;100.00;60910.66;5097211;28;20457;-78
2021/12/07 13:16:36;;;;;;;5.50;4.00;;;;;;;1.23;100.00;60935.34;5093195;28;20924;-76
2021/12/07 13:19:06;;;;;;;4.60;3.50;;;;;;;1.14;100.00;60925.78;5091544;28;20442;-79
2021/12/07 13:21:38;;;;;;;5.53;3.73;;;;;;;-0.16;100.00;60794.06;5091864;28;20515;-76
2021/12/07 13:24:10;;;;;;;5.27;3.57;;;;;;;1.13;100.00;60927.25;5091688;28;20445;-77
2021/12/07 13:26:41;;;;;;;3.73;2.97;;;;;;;0.03;100.00;60811.69;5091473;28;20480;-77
2021/12/07 13:29:14;;;;;;;4.60;3.33;;;;;;;1.08;100.00;60921.94;5091955;28;20437;-78
2021/12/07 13:31:42;;;;;;;6.40;4.37;;;;;;;0.92;100.00;60902.44;5091134;28;20509;-75
2021/12/07 13:34:18;;;;;;;6.17;3.80;;;;;;;1.12;100.00;60923.66;5091502;28;20433;-78
2021/12/07 13:36:48;;;;;;;6.53;3.83;;;;;;;0.66;100.00;60875.97;5091463;28;20904;-78
2021/12/07 13:39:39;;;;;;;5.77;3.63;;;;;;;1.04;100.00;60915.72;5091765;28;20430;-78
2021/12/07 13:42:11;;;;;;;6.80;3.30;;;;;;;0.68;100.00;60877.53;5091276;28;20453;-81
2021/12/07 13:44:46;;;;;;;5.07;3.50;;;;;;;-0.29;100.00;60770.28;5091637;28;20434;-79
2021/12/07 13:47:16;;;;;;;6.43;3.60;;;;;;;0.65;100.00;60879.91;5091412;28;20488;-77
2021/12/07 13:49:46;;;;;;;3.77;3.10;;;;;;;-0.06;100.00;60804.66;5092121;28;20418;-78